MSC Baleares — V7DP5 — position and weather

sailwx.info

Track history (hours):
 
Tides and Currents Weather Stations Pressure Air Temp Water Temp Dewpoint Dewpoint Depression Visibility Wind Speed Wind Dir Waves Ship Positions

MSC Baleares

Last reported at 2017-Sep-01 06:04 UTC. Time now 2017-Sep-22 08:33 UTC.
Position N 28°55' W 093°28'.
Warning: this ship's position is 21 days out of date.

Length 202 m; draft 0.87 m.

Type: Cargo ship. MMSI: 538001686.

Date/timePositionNaut miles runAvg speedWind from/ knotsBaromVisibWave heightAir tempDewpointWater temp
2017-Sep-01 06:04N 28°55' W 093°28'112.9
2017-Sep-01 06:00N 28°56' W 093°29'613.0
2017-Sep-01 05:30N 29°01' W 093°33'713.1
2017-Sep-01 05:00N 29°06' W 093°38'911.9
2017-Sep-01 04:16N 29°15' W 093°39'311.9
2017-Sep-01 04:00N 29°18' W 093°39'510.5
2017-Sep-01 03:30N 29°24' W 093°39'  
2017-Aug-24 22:21N 29°24' W 093°37'57 3.9
2017-Aug-24 07:49N 29°21' W 094°43'910.8
2017-Aug-24 06:59N 29°26' W 094°50'611.6
2017-Aug-24 06:30N 29°31' W 094°53'511.0
2017-Aug-24 06:00N 29°36' W 094°57'510.7
2017-Aug-24 05:30N 29°41' W 094°59'4 7.9
2017-Aug-24 05:00N 29°44' W 095°02'3 6.7
2017-Aug-24 04:30N 29°45' W 095°05'3 6.1
2017-Aug-24 04:00N 29°44' W 095°09'3 5.3
2017-Aug-24 03:30N 29°45' W 095°12'0 0.4
2017-Aug-24 02:32N 29°45' W 095°12'0 0.0
2017-Aug-24 02:31N 29°45' W 095°12'0 0.0
2017-Aug-22 15:37N 29°45' W 095°12'0 0.0
2017-Aug-22 15:30N 29°45' W 095°12'0 0.9
2017-Aug-22 14:59N 29°45' W 095°12'2 5.2
2017-Aug-22 14:30N 29°44' W 095°09'3 5.6
2017-Aug-22 14:00N 29°45' W 095°06'3 5.8
2017-Aug-22 13:30N 29°44' W 095°03'3 6.6
2017-Aug-22 13:00N 29°42' W 094°60'510.0
2017-Aug-22 12:30N 29°37' W 094°57'511.0
2017-Aug-22 12:00N 29°33' W 094°54'611.7
2017-Aug-22 11:30N 29°27' W 094°51'612.9
2017-Aug-22 11:00N 29°22' W 094°48'  
Track history (hours):
 
Tides and Currents Weather Stations Pressure Air Temp Water Temp Dewpoint Dewpoint Depression Visibility Wind Speed Wind Dir Waves Ship Positions

MSC Baleares

Last reported at 2017-Sep-01 06:04 UTC. Time now 2017-Sep-22 08:33 UTC.
Position N 28°55' W 093°28'.
Warning: this ship's position is 21 days out of date.

Length 202 m; draft 0.87 m.

Type: Cargo ship. MMSI: 538001686.

Date/timePositionNaut miles runAvg speedWind from/ knotsBaromVisibWave heightAir tempDewpointWater temp
2017-Sep-01 06:04N 28°55' W 093°28'112.9
2017-Sep-01 06:00N 28°56' W 093°29'613.0
2017-Sep-01 05:30N 29°01' W 093°33'713.1
2017-Sep-01 05:00N 29°06' W 093°38'911.9
2017-Sep-01 04:16N 29°15' W 093°39'311.9
2017-Sep-01 04:00N 29°18' W 093°39'510.5
2017-Sep-01 03:30N 29°24' W 093°39'  
2017-Aug-24 22:21N 29°24' W 093°37'57 3.9
2017-Aug-24 07:49N 29°21' W 094°43'910.8
2017-Aug-24 06:59N 29°26' W 094°50'611.6
2017-Aug-24 06:30N 29°31' W 094°53'511.0
2017-Aug-24 06:00N 29°36' W 094°57'510.7
2017-Aug-24 05:30N 29°41' W 094°59'4 7.9
2017-Aug-24 05:00N 29°44' W 095°02'3 6.7
2017-Aug-24 04:30N 29°45' W 095°05'3 6.1
2017-Aug-24 04:00N 29°44' W 095°09'3 5.3
2017-Aug-24 03:30N 29°45' W 095°12'0 0.4
2017-Aug-24 02:32N 29°45' W 095°12'0 0.0
2017-Aug-24 02:31N 29°45' W 095°12'0 0.0
2017-Aug-22 15:37N 29°45' W 095°12'0 0.0
2017-Aug-22 15:30N 29°45' W 095°12'0 0.9
2017-Aug-22 14:59N 29°45' W 095°12'2 5.2
2017-Aug-22 14:30N 29°44' W 095°09'3 5.6
2017-Aug-22 14:00N 29°45' W 095°06'3 5.8
2017-Aug-22 13:30N 29°44' W 095°03'3 6.6
2017-Aug-22 13:00N 29°42' W 094°60'510.0
2017-Aug-22 12:30N 29°37' W 094°57'511.0
2017-Aug-22 12:00N 29°33' W 094°54'611.7
2017-Aug-22 11:30N 29°27' W 094°51'612.9
2017-Aug-22 11:00N 29°22' W 094°48'  

Dump ship's entire track history